Time;durP1;ratioP1;P1;durP2;ratioP2;P2;SDS_P1;SDS_P2;PMS_P1;PMS_P2;Temp;Humidity;BMP_temperature;BMP_pressure;BME280_temperature;BME280_humidity;BME280_pressure;Samples;Min_cycle;Max_cycle;Signal;HPM_P1;HPM_P2
2023/03/04 00:00:41;;;;;;;40.50;16.50;;;;;;;3.47;100.00;100458.30;106963;1283;58670;-82
2023/03/04 00:03:09;;;;;;;35.70;15.10;;;;;;;3.47;100.00;100453.83;107047;1283;74734;-83
2023/03/04 00:05:35;;;;;;;35.60;14.90;;;;;;;3.47;100.00;100448.67;107026;1283;74147;-82
2023/03/04 00:08:01;;;;;;;37.20;15.80;;;;;;;3.46;100.00;100446.25;107028;1283;59033;-83
2023/03/04 00:10:26;;;;;;;38.50;16.30;;;;;;;3.46;100.00;100444.00;107053;1283;58504;-82
2023/03/04 00:12:52;;;;;;;37.20;15.80;;;;;;;3.45;100.00;100440.02;106784;1283;58547;-82
2023/03/04 00:15:17;;;;;;;38.20;15.80;;;;;;;3.45;100.00;100440.20;107068;1283;58310;-82
2023/03/04 00:17:44;;;;;;;38.50;16.10;;;;;;;3.45;100.00;100438.42;106933;1283;58621;-82
2023/03/04 00:20:11;;;;;;;39.90;17.20;;;;;;;3.45;100.00;100437.45;107036;1283;60825;-82
2023/03/04 00:22:36;;;;;;;41.40;17.40;;;;;;;3.44;100.00;100435.90;107034;1283;58417;-82
2023/03/04 00:25:02;;;;;;;37.20;16.70;;;;;;;3.45;100.00;100435.41;107034;1283;58584;-82
2023/03/04 00:27:27;;;;;;;40.60;16.60;;;;;;;3.44;100.00;100434.75;107081;1283;58185;-82
2023/03/04 00:29:54;;;;;;;45.10;17.50;;;;;;;3.43;100.00;100429.52;107044;1283;58310;-82
2023/03/04 00:32:20;;;;;;;37.10;16.80;;;;;;;3.42;100.00;100431.90;106915;1283;58980;-82
2023/03/04 00:34:45;;;;;;;43.00;17.40;;;;;;;3.42;100.00;100428.01;107121;1283;58330;-82
2023/03/04 00:37:11;;;;;;;42.70;16.70;;;;;;;3.41;100.00;100428.10;107079;1283;74437;-82
2023/03/04 00:39:36;;;;;;;44.40;16.80;;;;;;;3.39;100.00;100425.04;107052;1283;58524;-82
2023/03/04 00:42:02;;;;;;;39.70;15.90;;;;;;;3.38;100.00;100428.02;106682;1283;58444;-82
2023/03/04 00:44:27;;;;;;;36.60;16.50;;;;;;;3.37;100.00;100428.49;107051;1283;58454;-82
2023/03/04 00:46:53;;;;;;;45.80;16.90;;;;;;;3.36;100.00;100429.04;107116;1283;58410;-83
2023/03/04 00:49:18;;;;;;;38.80;15.90;;;;;;;3.34;100.00;100426.26;107039;1283;73359;-82
2023/03/04 00:51:44;;;;;;;46.60;16.70;;;;;;;3.34;100.00;100432.57;107021;1283;58260;-82
2023/03/04 00:54:09;;;;;;;40.60;17.10;;;;;;;3.32;100.00;100425.74;106958;1283;58222;-82
2023/03/04 00:56:35;;;;;;;40.00;17.10;;;;;;;3.31;100.00;100427.18;107104;1283;58549;-83
2023/03/04 00:59:00;;;;;;;45.50;17.30;;;;;;;3.31;100.00;100425.18;107084;1283;58318;-82
2023/03/04 01:01:26;;;;;;;44.50;17.30;;;;;;;3.29;100.00;100418.14;107033;1283;58206;-81
2023/03/04 01:03:51;;;;;;;39.10;17.80;;;;;;;3.28;100.00;100417.05;107035;1283;58241;-82
2023/03/04 01:06:17;;;;;;;36.90;15.90;;;;;;;3.26;100.00;100416.13;107053;1283;58285;-82
2023/03/04 01:08:42;;;;;;;42.80;17.70;;;;;;;3.25;100.00;100412.69;107096;1283;58680;-82
2023/03/04 01:11:08;;;;;;;43.80;17.70;;;;;;;3.26;100.00;100413.59;106730;1283;58362;-82
2023/03/04 01:13:34;;;;;;;42.00;17.60;;;;;;;3.24;100.00;100409.20;107058;1283;59323;-82
2023/03/04 01:15:59;;;;;;;43.00;18.00;;;;;;;3.24;100.00;100410.56;107054;1283;58240;-82
2023/03/04 01:18:25;;;;;;;45.90;19.00;;;;;;;3.22;100.00;100406.15;107055;1283;59000;-83
2023/03/04 01:20:51;;;;;;;53.30;18.90;;;;;;;3.21;100.00;100399.07;107012;1283;58262;-82
2023/03/04 01:23:16;;;;;;;41.30;18.00;;;;;;;3.20;100.00;100400.76;107080;1283;58619;-82
2023/03/04 01:25:42;;;;;;;52.90;19.60;;;;;;;3.18;100.00;100402.25;106850;1283;58361;-83
2023/03/04 01:28:07;;;;;;;50.00;19.30;;;;;;;3.17;100.00;100398.90;107060;1283;58320;-82
2023/03/04 01:30:33;;;;;;;47.80;19.90;;;;;;;3.14;100.00;100404.08;106927;1283;58502;-82
2023/03/04 01:32:59;;;;;;;49.20;19.30;;;;;;;3.11;100.00;100413.72;107035;1283;58451;-82
2023/03/04 01:35:24;;;;;;;46.60;18.50;;;;;;;3.09;100.00;100413.66;107057;1283;58254;-82
2023/03/04 01:37:50;;;;;;;46.20;18.40;;;;;;;3.05;100.00;100417.27;107117;1283;58251;-83
2023/03/04 01:40:15;;;;;;;48.20;19.20;;;;;;;3.00;100.00;100416.24;107002;1283;73461;-82
2023/03/04 01:42:42;;;;;;;50.10;19.00;;;;;;;2.91;100.00;100417.65;107019;1283;58253;-83
2023/03/04 01:45:13;;;;;;;44.60;18.40;;;;;;;2.81;100.00;100415.59;107080;1283;58248;-83
2023/03/04 01:47:38;;;;;;;48.30;18.70;;;;;;;2.68;100.00;100413.52;107014;1283;74231;-82
2023/03/04 01:50:10;;;;;;;42.40;18.20;;;;;;;2.57;100.00;100418.97;106735;1283;58621;-82
2023/03/04 01:52:38;;;;;;;46.40;18.50;;;;;;;2.47;100.00;100421.47;107040;1283;72531;-82
2023/03/04 01:55:13;;;;;;;44.30;18.30;;;;;;;2.38;100.00;100423.35;107036;1283;61793;-83
2023/03/04 01:57:39;;;;;;;48.10;19.00;;;;;;;2.28;100.00;100425.17;107082;1283;61184;-82
2023/03/04 02:00:17;;;;;;;45.50;18.10;;;;;;;2.18;100.00;100421.19;107068;1283;58272;-82
2023/03/04 02:02:43;;;;;;;44.80;17.70;;;;;;;2.08;100.00;100423.10;107067;1283;73727;-82
2023/03/04 02:05:09;;;;;;;41.60;18.20;;;;;;;1.98;100.00;100423.20;107030;1283;58517;-82
2023/03/04 02:07:34;;;;;;;42.50;18.70;;;;;;;1.90;100.00;100426.13;107071;1283;58124;-83
2023/03/04 02:10:00;;;;;;;45.80;20.00;;;;;;;1.81;100.00;100423.85;107015;1283;58371;-82
2023/03/04 02:12:26;;;;;;;42.70;19.30;;;;;;;1.71;100.00;100425.38;107059;1283;58368;-82
2023/03/04 02:14:51;;;;;;;51.10;19.60;;;;;;;1.62;100.00;100425.58;106993;1283;58407;-83
2023/03/04 02:17:24;;;;;;;42.00;18.90;;;;;;;1.54;100.00;100423.90;106936;1283;58186;-82
2023/03/04 02:20:01;;;;;;;47.70;19.10;;;;;;;1.45;100.00;100425.77;107053;1283;61103;-82
2023/03/04 02:22:27;;;;;;;47.20;19.00;;;;;;;1.36;100.00;100423.73;107113;1283;74638;-82
2023/03/04 02:25:18;;;;;;;41.30;17.00;;;;;;;1.29;100.00;100425.61;106976;1283;58296;-83
2023/03/04 02:27:43;;;;;;;48.70;18.30;;;;;;;1.21;100.00;100425.44;107032;1283;73534;-82
2023/03/04 02:30:11;;;;;;;43.90;18.20;;;;;;;1.15;100.00;100428.29;106995;1283;58493;-83
2023/03/04 02:32:37;;;;;;;41.10;18.10;;;;;;;1.10;100.00;100428.61;106836;1283;59115;-83
2023/03/04 02:35:03;;;;;;;43.70;18.20;;;;;;;1.05;100.00;100427.49;107057;1283;58121;-83
2023/03/04 02:37:28;;;;;;;41.60;17.90;;;;;;;0.99;100.00;100426.55;106990;1283;58978;-83
2023/03/04 02:39:54;;;;;;;36.90;17.80;;;;;;;0.95;100.00;100422.50;107073;1283;58275;-83
2023/03/04 02:42:19;;;;;;;39.00;17.60;;;;;;;0.91;100.00;100424.77;107081;1283;58349;-82
2023/03/04 02:44:48;;;;;;;41.50;17.90;;;;;;;0.86;100.00;100425.48;106636;1286;213723;-83
2023/03/04 02:47:19;;;;;;;39.30;17.80;;;;;;;0.81;100.00;100421.76;106667;1287;74586;-83
2023/03/04 02:49:45;;;;;;;39.00;17.50;;;;;;;0.76;100.00;100421.74;107063;1283;72372;-83
2023/03/04 02:52:18;;;;;;;34.90;16.30;;;;;;;0.69;100.00;100425.45;107051;1283;58105;-83
2023/03/04 02:54:44;;;;;;;38.90;17.70;;;;;;;0.64;100.00;100426.98;106754;1283;61180;-83
2023/03/04 02:57:11;;;;;;;47.30;18.50;;;;;;;0.60;100.00;100427.20;107087;1283;58695;-83
2023/03/04 02:59:38;;;;;;;35.60;16.20;;;;;;;0.55;100.00;100424.79;107101;1283;58604;-83
2023/03/04 03:02:05;;;;;;;38.30;17.80;;;;;;;0.51;100.00;100423.74;106982;1283;73587;-83
2023/03/04 03:04:30;;;;;;;40.90;17.60;;;;;;;0.47;100.00;100429.10;106955;1283;58276;-83
2023/03/04 03:06:56;;;;;;;42.00;18.10;;;;;;;0.41;100.00;100420.60;106872;1283;58370;-83
2023/03/04 03:09:22;;;;;;;43.20;18.00;;;;;;;0.37;100.00;100420.79;107055;1285;58257;-83
2023/03/04 03:11:47;;;;;;;40.00;17.60;;;;;;;0.34;100.00;100421.35;107008;1283;58473;-83
2023/03/04 03:14:13;;;;;;;40.30;17.40;;;;;;;0.34;100.00;100426.44;107074;1283;58280;-83
2023/03/04 03:16:39;;;;;;;44.10;19.70;;;;;;;0.33;100.00;100421.47;106698;1283;58267;-82
2023/03/04 03:19:05;;;;;;;47.80;19.50;;;;;;;0.31;100.00;100420.67;107021;1283;73929;-83
2023/03/04 03:21:30;;;;;;;39.80;19.30;;;;;;;0.29;100.00;100418.42;107082;1283;58332;-82
2023/03/04 03:23:56;;;;;;;52.70;19.70;;;;;;;0.25;100.00;100420.16;107074;1283;58293;-82
2023/03/04 03:26:21;;;;;;;42.10;18.60;;;;;;;0.21;100.00;100419.12;107043;1283;58209;-82
2023/03/04 03:28:47;;;;;;;45.50;18.90;;;;;;;0.17;100.00;100418.95;107126;1283;58892;-83
2023/03/04 03:31:13;;;;;;;44.70;19.20;;;;;;;0.13;100.00;100414.64;107032;1283;73410;-83
2023/03/04 03:33:39;;;;;;;48.90;19.90;;;;;;;0.09;100.00;100415.55;107050;1283;58512;-83
2023/03/04 03:36:05;;;;;;;46.40;20.10;;;;;;;0.06;100.00;100416.06;107064;1283;58235;-83
2023/03/04 03:38:31;;;;;;;48.00;19.30;;;;;;;0.03;100.00;100415.36;106996;1283;59014;-83
2023/03/04 03:40:56;;;;;;;47.10;19.90;;;;;;;-0.01;100.00;100418.16;107098;1283;58338;-82
2023/03/04 03:43:22;;;;;;;46.50;19.60;;;;;;;-0.05;100.00;100416.45;106758;1283;58439;-82
2023/03/04 03:45:47;;;;;;;44.80;19.50;;;;;;;-0.08;100.00;100417.89;107111;1283;58691;-82
2023/03/04 03:48:13;;;;;;;47.10;20.20;;;;;;;-0.13;100.00;100415.63;107039;1283;61110;-83
2023/03/04 03:50:38;;;;;;;44.10;19.00;;;;;;;-0.16;100.00;100416.95;107085;1283;58331;-82
2023/03/04 03:53:04;;;;;;;44.20;19.60;;;;;;;-0.19;100.00;100418.36;106713;1283;58811;-83
2023/03/04 03:55:30;;;;;;;49.00;20.50;;;;;;;-0.22;100.00;100413.29;107077;1283;58513;-82
2023/03/04 03:57:56;;;;;;;51.90;20.20;;;;;;;-0.21;100.00;100412.11;107112;1283;58185;-82
2023/03/04 04:00:21;;;;;;;48.10;20.40;;;;;;;-0.22;100.00;100409.83;107046;1283;74615;-82
2023/03/04 04:02:47;;;;;;;46.10;18.90;;;;;;;-0.25;100.00;100412.45;107063;1283;58231;-82
2023/03/04 04:05:13;;;;;;;47.50;20.00;;;;;;;-0.26;100.00;100412.60;106934;1283;58528;-83
2023/03/04 04:07:40;;;;;;;52.20;20.60;;;;;;;-0.29;100.00;100412.75;107040;1283;58301;-82
2023/03/04 04:10:07;;;;;;;45.40;19.90;;;;;;;-0.30;100.00;100411.31;106957;1283;58926;-82
2023/03/04 04:12:32;;;;;;;50.00;21.10;;;;;;;-0.31;100.00;100414.77;107089;1283;58252;-82
2023/03/04 04:14:58;;;;;;;48.70;21.00;;;;;;;-0.34;100.00;100414.23;106768;1283;59195;-83
2023/03/04 04:17:23;;;;;;;50.30;22.50;;;;;;;-0.35;100.00;100412.79;107007;1283;58616;-83
2023/03/04 04:19:49;;;;;;;59.20;23.00;;;;;;;-0.32;100.00;100412.45;107074;1283;58488;-82
2023/03/04 04:22:17;;;;;;;57.10;23.50;;;;;;;-0.33;100.00;100411.70;107076;1283;58293;-82
2023/03/04 04:24:43;;;;;;;53.80;23.30;;;;;;;-0.33;100.00;100410.20;107045;1283;74200;-82
2023/03/04 04:27:09;;;;;;;57.20;24.50;;;;;;;-0.32;100.00;100416.19;107083;1283;58573;-83
2023/03/04 04:29:35;;;;;;;58.20;24.50;;;;;;;-0.31;100.00;100414.04;106711;1283;58977;-81
2023/03/04 04:32:00;;;;;;;66.10;26.20;;;;;;;-0.28;100.00;100415.23;107043;1283;58280;-82
2023/03/04 04:34:26;;;;;;;63.90;26.10;;;;;;;-0.26;100.00;100411.83;107057;1283;58343;-82
2023/03/04 04:36:51;;;;;;;60.80;25.40;;;;;;;-0.25;100.00;100409.88;107063;1283;58395;-82
2023/03/04 04:39:17;;;;;;;68.40;26.60;;;;;;;-0.20;100.00;100407.47;106795;1283;60346;-82
2023/03/04 04:41:43;;;;;;;62.00;25.50;;;;;;;-0.13;100.00;100406.87;107046;1283;58259;-82
2023/03/04 04:44:09;;;;;;;61.50;25.40;;;;;;;-0.05;100.00;100407.23;106753;1283;58309;-83
2023/03/04 04:46:35;;;;;;;65.90;25.30;;;;;;;0.04;100.00;100412.84;107042;1283;58318;-82
2023/03/04 04:49:01;;;;;;;58.70;24.70;;;;;;;0.12;100.00;100412.27;106796;1283;58529;-83
2023/03/04 04:51:27;;;;;;;60.50;24.60;;;;;;;0.22;100.00;100413.14;107046;1283;58603;-82
2023/03/04 04:53:53;;;;;;;58.40;24.10;;;;;;;0.36;100.00;100414.22;106680;1283;58759;-83
2023/03/04 04:56:23;;;;;;;61.20;24.40;;;;;;;0.51;100.00;100416.89;107110;1283;58570;-82
2023/03/04 04:58:49;;;;;;;56.20;23.00;;;;;;;0.60;100.00;100415.86;106924;1283;71724;-82
2023/03/04 05:01:14;;;;;;;57.60;23.40;;;;;;;0.69;100.00;100414.71;107103;1283;58251;-82
2023/03/04 05:03:40;;;;;;;50.80;21.60;;;;;;;0.82;100.00;100416.88;107091;1283;58462;-83
2023/03/04 05:06:08;;;;;;;52.90;19.70;;;;;;;1.28;100.00;100417.44;106634;1283;58316;-83
2023/03/04 05:08:34;;;;;;;47.60;18.80;;;;;;;2.23;100.00;100422.55;106926;1283;58287;-84
2023/03/04 05:11:01;;;;;;;45.50;17.90;;;;;;;3.21;100.00;100415.37;106822;1283;58421;-83
2023/03/04 05:13:26;;;;;;;46.50;17.20;;;;;;;4.13;100.00;100416.98;107032;1283;58226;-84
2023/03/04 05:15:54;;;;;;;49.10;17.90;;;;;;;4.96;100.00;100417.64;107049;1283;58273;-84
2023/03/04 05:18:23;;;;;;;42.10;17.00;;;;;;;5.76;100.00;100419.02;106966;1283;58252;-84
2023/03/04 05:20:54;;;;;;;37.40;15.90;;;;;;;6.61;100.00;100420.38;107036;1283;74470;-84
2023/03/04 05:23:21;;;;;;;39.80;16.60;;;;;;;7.39;100.00;100425.28;107067;1283;73473;-84
2023/03/04 05:25:47;;;;;;;37.10;16.20;;;;;;;8.17;100.00;100428.72;106957;1283;58974;-84
2023/03/04 05:28:13;;;;;;;39.20;17.20;;;;;;;9.08;100.00;100433.13;107111;1283;58217;-84
2023/03/04 05:30:40;;;;;;;35.70;16.20;;;;;;;9.88;100.00;100435.05;107080;1283;58204;-85
2023/03/04 05:33:07;;;;;;;39.50;17.00;;;;;;;10.49;97.32;100441.45;106946;1283;58252;-86
2023/03/04 05:35:37;;;;;;;39.30;16.30;;;;;;;11.11;91.16;100447.58;106920;1283;72729;-86
2023/03/04 05:38:05;;;;;;;40.90;17.40;;;;;;;11.89;89.42;100446.86;107027;1283;61041;-86
2023/03/04 05:40:31;;;;;;;38.00;17.80;;;;;;;12.57;78.86;100443.41;106952;1283;60730;-86
2023/03/04 05:42:56;;;;;;;35.80;16.30;;;;;;;12.95;68.91;100447.06;106927;1283;58543;-85
2023/03/04 05:45:25;;;;;;;36.60;17.40;;;;;;;13.46;67.12;100447.84;107086;1283;58213;-87
2023/03/04 05:47:51;;;;;;;44.30;19.10;;;;;;;13.64;61.45;100453.27;106939;1283;73612;-85
2023/03/04 05:50:17;;;;;;;42.80;18.10;;;;;;;13.74;61.52;100454.16;107059;1283;58384;-85
2023/03/04 05:52:43;;;;;;;38.70;18.30;;;;;;;14.11;60.10;100460.48;106726;1284;58989;-86
2023/03/04 05:55:09;;;;;;;35.80;17.50;;;;;;;14.19;56.27;100460.84;106838;1285;58936;-87
2023/03/04 05:57:34;;;;;;;41.80;18.50;;;;;;;14.25;56.41;100462.39;106992;1284;58333;-85
2023/03/04 06:00:01;;;;;;;36.10;18.00;;;;;;;14.74;55.97;100459.79;106939;1286;58145;-86
2023/03/04 06:02:26;;;;;;;45.30;19.80;;;;;;;15.44;53.52;100462.68;106973;1284;58600;-86
2023/03/04 06:04:55;;;;;;;41.10;19.80;;;;;;;15.80;51.59;100462.98;106847;1283;74691;-87
2023/03/04 06:07:20;;;;;;;36.10;18.50;;;;;;;16.14;49.93;100461.24;107020;1285;74083;-86
2023/03/04 06:09:46;;;;;;;37.80;19.90;;;;;;;16.47;47.69;100457.23;106601;1285;58395;-86
2023/03/04 06:12:12;;;;;;;39.10;20.20;;;;;;;16.55;47.13;100456.16;106926;1285;58290;-87
2023/03/04 06:14:37;;;;;;;39.20;19.30;;;;;;;16.84;47.14;100459.34;106845;1285;58270;-86
2023/03/04 06:17:05;;;;;;;38.40;19.50;;;;;;;17.22;45.50;100456.80;106967;1284;58267;-87
2023/03/04 06:19:31;;;;;;;38.00;19.50;;;;;;;17.84;44.56;100457.20;106950;1284;73530;-86
2023/03/04 06:21:56;;;;;;;41.60;20.90;;;;;;;18.02;42.41;100455.25;106867;1285;58304;-86
2023/03/04 06:24:22;;;;;;;37.80;19.40;;;;;;;17.87;42.47;100458.05;106653;1284;58547;-86
2023/03/04 06:26:47;;;;;;;39.10;19.90;;;;;;;18.23;42.22;100449.73;106963;1285;58288;-87
2023/03/04 06:29:14;;;;;;;41.40;20.30;;;;;;;18.77;41.90;100448.66;106595;1287;58626;-87
2023/03/04 06:31:40;;;;;;;35.00;19.80;;;;;;;19.07;40.72;100447.71;106520;1287;61197;-86
2023/03/04 06:34:07;;;;;;;43.00;20.60;;;;;;;19.38;39.35;100450.45;106595;1288;60178;-86
2023/03/04 06:36:33;;;;;;;39.50;20.20;;;;;;;19.69;39.29;100448.64;106589;1287;74504;-86
2023/03/04 06:39:00;;;;;;;38.00;19.60;;;;;;;20.06;39.40;100448.15;106460;1289;58341;-87
2023/03/04 06:41:26;;;;;;;33.10;19.10;;;;;;;20.07;37.61;100448.66;106292;1287;72816;-85
2023/03/04 06:43:54;;;;;;;33.60;19.90;;;;;;;20.44;36.94;100445.27;106562;1288;58436;-86
2023/03/04 06:46:20;;;;;;;38.30;20.40;;;;;;;20.71;36.85;100446.52;106453;1288;61162;-86
2023/03/04 06:48:45;;;;;;;35.50;20.50;;;;;;;20.73;36.69;100443.23;106656;1287;58364;-85
2023/03/04 06:51:11;;;;;;;34.90;21.00;;;;;;;21.03;36.45;100438.90;106614;1287;58310;-86
2023/03/04 06:53:38;;;;;;;35.10;19.10;;;;;;;21.34;35.84;100442.48;106296;1289;58349;-85
2023/03/04 06:56:05;;;;;;;42.30;19.30;;;;;;;21.68;34.99;100442.13;106271;1289;58339;-87
2023/03/04 06:58:30;;;;;;;33.10;19.60;;;;;;;22.03;34.62;100441.37;106610;1288;58271;-86
2023/03/04 07:01:35;;;;;;;35.00;18.80;;;;;;;21.94;33.81;100442.10;106601;1284;58334;-85
2023/03/04 07:04:01;;;;;;;31.90;18.70;;;;;;;22.40;33.38;100441.19;106268;1290;74311;-86
2023/03/04 07:06:28;;;;;;;31.20;18.50;;;;;;;22.53;32.74;100441.44;106243;1290;58273;-86
2023/03/04 07:08:54;;;;;;;32.60;18.40;;;;;;;22.75;32.66;100440.09;106203;1290;58680;-86
2023/03/04 07:11:21;;;;;;;31.00;19.00;;;;;;;22.92;32.64;100443.59;106157;1290;58749;-86
2023/03/04 07:13:46;;;;;;;28.60;17.20;;;;;;;22.78;32.01;100438.69;106254;1290;58460;-86
2023/03/04 07:16:16;;;;;;;31.00;19.10;;;;;;;23.19;31.68;100439.71;106218;1291;58198;-87
2023/03/04 07:18:42;;;;;;;30.50;17.40;;;;;;;22.82;30.95;100440.85;106206;1290;72626;-86
2023/03/04 07:21:08;;;;;;;27.40;16.80;;;;;;;22.59;31.99;100436.69;106242;1291;58394;-87
2023/03/04 07:23:34;;;;;;;31.60;17.20;;;;;;;22.83;31.66;100435.33;106295;1290;58601;-85
2023/03/04 07:25:59;;;;;;;24.30;15.80;;;;;;;22.86;31.53;100434.31;106110;1291;58612;-86
2023/03/04 07:28:25;;;;;;;25.90;16.40;;;;;;;22.76;31.20;100432.77;106279;1291;60229;-85
2023/03/04 07:30:51;;;;;;;28.00;17.30;;;;;;;23.00;31.28;100434.88;106189;1294;58508;-85
2023/03/04 07:33:16;;;;;;;24.50;15.70;;;;;;;22.93;30.96;100439.55;106202;1290;58628;-85
2023/03/04 07:35:42;;;;;;;26.30;16.60;;;;;;;22.98;30.47;100435.14;106817;1283;58348;-86
2023/03/04 07:38:07;;;;;;;25.60;15.80;;;;;;;22.90;30.52;100432.17;107073;1283;58385;-85
2023/03/04 07:40:33;;;;;;;27.50;17.30;;;;;;;22.81;30.62;100427.08;106622;1283;58368;-85
2023/03/04 07:42:58;;;;;;;28.20;16.90;;;;;;;23.03;30.78;100432.64;107041;1283;58998;-85
2023/03/04 07:45:30;;;;;;;25.50;16.60;;;;;;;23.33;30.37;100433.03;107093;1283;58324;-83
2023/03/04 07:47:57;;;;;;;30.20;15.60;;;;;;;23.37;29.79;100434.02;107054;1283;73563;-86
2023/03/04 07:50:23;;;;;;;27.20;16.50;;;;;;;23.52;29.73;100430.31;106988;1286;72776;-86
2023/03/04 07:52:52;;;;;;;28.50;16.00;;;;;;;23.39;29.56;100429.02;106959;1285;58185;-85
2023/03/04 07:55:18;;;;;;;33.10;18.30;;;;;;;23.74;29.96;100430.61;106825;1283;60019;-85
2023/03/04 07:57:46;;;;;;;26.70;16.20;;;;;;;24.00;29.54;100425.95;107067;1283;58148;-85
2023/03/04 08:00:14;;;;;;;28.20;16.90;;;;;;;24.11;29.00;100423.78;107092;1283;73757;-85
2023/03/04 08:02:40;;;;;;;32.00;18.80;;;;;;;24.08;29.83;100424.52;106662;1286;73522;-85
2023/03/04 08:05:06;;;;;;;35.70;20.40;;;;;;;24.53;29.55;100425.58;106683;1286;58235;-84
2023/03/04 08:07:32;;;;;;;35.90;20.30;;;;;;;24.79;29.17;100423.21;106428;1286;58313;-85
2023/03/04 08:09:57;;;;;;;34.10;20.30;;;;;;;25.20;28.74;100416.83;106594;1286;58903;-85
2023/03/04 08:12:24;;;;;;;36.00;21.20;;;;;;;25.24;28.23;100419.75;106672;1286;59883;-85
2023/03/04 08:14:50;;;;;;;36.30;21.00;;;;;;;25.64;28.24;100408.61;106582;1285;58334;-84
2023/03/04 08:17:16;;;;;;;39.10;21.90;;;;;;;25.49;27.75;100405.90;106478;1286;58769;-85
2023/03/04 08:19:41;;;;;;;42.00;21.90;;;;;;;25.64;27.65;100401.91;106793;1285;74600;-85
2023/03/04 08:22:07;;;;;;;41.40;21.20;;;;;;;25.81;27.59;100392.52;106853;1286;58377;-86
2023/03/04 08:24:32;;;;;;;39.60;19.80;;;;;;;25.74;27.08;100392.61;106786;1285;58412;-86
2023/03/04 08:26:58;;;;;;;33.50;19.80;;;;;;;25.43;27.12;100385.44;106811;1285;58180;-85
2023/03/04 08:29:24;;;;;;;37.60;19.40;;;;;;;25.35;27.05;100385.44;106837;1285;58814;-85
2023/03/04 08:31:51;;;;;;;31.80;18.10;;;;;;;24.98;26.94;100397.92;106792;1285;74341;-84
2023/03/04 08:34:20;;;;;;;31.90;18.10;;;;;;;24.80;27.41;100394.23;106949;1283;72430;-85
2023/03/04 08:36:46;;;;;;;31.80;19.00;;;;;;;24.45;27.09;100388.73;107021;1283;61767;-85
2023/03/04 08:39:13;;;;;;;34.00;18.10;;;;;;;24.29;27.44;100377.64;106728;1283;58362;-86
2023/03/04 08:41:40;;;;;;;29.50;17.00;;;;;;;24.34;27.23;100376.73;107046;1283;74477;-85
2023/03/04 08:44:07;;;;;;;29.50;16.90;;;;;;;24.48;27.30;100374.64;107072;1283;58241;-85
2023/03/04 08:46:33;;;;;;;31.70;16.90;;;;;;;24.39;27.03;100372.92;106982;1283;73702;-85
2023/03/04 08:48:59;;;;;;;32.10;17.20;;;;;;;23.90;27.66;100373.73;106944;1283;58268;-85
2023/03/04 08:51:24;;;;;;;26.10;15.60;;;;;;;23.86;28.23;100372.73;107070;1283;58285;-85
2023/03/04 08:53:50;;;;;;;31.00;16.80;;;;;;;23.78;28.16;100375.86;107098;1283;58653;-85
2023/03/04 08:56:16;;;;;;;31.90;16.70;;;;;;;23.82;27.76;100369.42;107054;1283;58615;-85
2023/03/04 08:58:41;;;;;;;30.70;16.00;;;;;;;23.33;28.36;100365.20;106945;1283;58249;-85
2023/03/04 09:01:09;;;;;;;30.20;15.60;;;;;;;23.53;28.32;100370.69;106938;1284;58620;-84
2023/03/04 09:03:38;;;;;;;27.40;15.10;;;;;;;22.89;27.58;100367.55;107039;1283;74356;-85
2023/03/04 09:06:04;;;;;;;26.30;14.70;;;;;;;22.12;28.10;100368.91;106687;1283;73293;-85
2023/03/04 09:08:31;;;;;;;27.70;14.60;;;;;;;21.38;29.25;100367.34;106745;1284;58337;-85
2023/03/04 09:10:57;;;;;;;27.90;14.60;;;;;;;20.68;29.73;100361.63;107020;1283;58206;-85
2023/03/04 09:13:23;;;;;;;32.10;15.60;;;;;;;19.81;30.79;100362.95;107048;1283;58487;-86
2023/03/04 09:15:51;;;;;;;28.30;14.60;;;;;;;19.13;31.87;100356.52;106737;1283;58819;-84
2023/03/04 09:18:18;;;;;;;32.50;15.00;;;;;;;18.39;32.22;100350.14;106973;1283;72753;-84
2023/03/04 09:20:44;;;;;;;24.80;13.80;;;;;;;17.73;33.18;100343.46;106613;1283;73223;-85
2023/03/04 09:23:11;;;;;;;27.60;14.10;;;;;;;17.30;34.07;100341.31;107069;1283;58179;-85
2023/03/04 09:25:37;;;;;;;26.90;12.70;;;;;;;16.90;34.69;100339.27;106991;1283;59085;-85
2023/03/04 09:28:04;;;;;;;29.70;13.90;;;;;;;16.68;35.01;100335.52;107043;1283;58192;-88
2023/03/04 09:30:30;;;;;;;23.10;11.80;;;;;;;16.43;35.76;100332.69;106761;1283;73646;-84
2023/03/04 09:32:56;;;;;;;25.10;12.10;;;;;;;15.92;35.51;100331.30;107027;1283;58260;-86
2023/03/04 09:35:22;;;;;;;26.00;11.90;;;;;;;15.21;36.64;100325.87;107060;1283;58110;-83
2023/03/04 09:37:48;;;;;;;26.90;12.00;;;;;;;14.74;37.48;100318.41;107028;1283;58248;-85
2023/03/04 09:40:20;;;;;;;25.40;12.40;;;;;;;14.70;37.93;100318.25;106806;1285;58265;-84
2023/03/04 09:42:50;;;;;;;23.60;11.30;;;;;;;14.53;38.88;100316.59;106724;1286;72435;-84
2023/03/04 09:45:22;;;;;;;23.40;11.20;;;;;;;14.41;38.49;100304.27;106783;1286;72193;-84
2023/03/04 09:47:51;;;;;;;25.10;11.80;;;;;;;14.28;38.89;100300.55;106798;1285;60026;-84
2023/03/04 09:50:19;;;;;;;24.00;11.30;;;;;;;14.30;38.30;100294.88;106789;1286;59277;-84
2023/03/04 09:53:05;;;;;;;22.40;10.50;;;;;;;14.11;38.51;100291.83;106821;1285;74428;-84
2023/03/04 09:55:38;;;;;;;26.80;11.20;;;;;;;13.71;39.61;100288.18;106747;1289;74380;-83
2023/03/04 09:58:45;;;;;;;30.00;12.00;;;;;;;13.53;39.89;100281.77;106804;1286;72284;-84
2023/03/04 10:01:25;;;;;;;26.20;11.30;;;;;;;13.43;40.32;100275.60;106027;1294;61275;-83
2023/03/04 10:03:59;;;;;;;24.30;11.30;;;;;;;13.32;40.70;100273.92;106003;1294;60221;-83
2023/03/04 10:06:25;;;;;;;28.50;11.40;;;;;;;13.25;40.95;100268.02;106012;1297;74375;-84
2023/03/04 10:09:02;;;;;;;26.00;11.30;;;;;;;13.17;41.12;100263.59;106028;1294;58449;-84
2023/03/04 10:11:40;;;;;;;27.30;11.90;;;;;;;13.07;40.78;100262.11;106127;1291;71389;-83
2023/03/04 10:14:20;;;;;;;34.70;12.30;;;;;;;12.86;41.46;100258.30;106208;1291;60985;-83
2023/03/04 10:16:55;;;;;;;27.10;12.50;;;;;;;12.56;41.66;100249.98;106238;1292;61103;-83
2023/03/04 10:19:29;;;;;;;27.20;11.80;;;;;;;12.45;41.42;100241.98;105924;1291;73769;-83
2023/03/04 10:21:55;;;;;;;27.90;12.10;;;;;;;12.31;42.02;100238.30;106200;1291;74272;-84
2023/03/04 10:24:27;;;;;;;27.00;11.40;;;;;;;12.18;43.01;100233.19;106242;1291;58429;-83
2023/03/04 10:27:02;;;;;;;22.00;10.10;;;;;;;12.16;43.05;100229.55;106203;1292;60941;-85
2023/03/04 10:29:30;;;;;;;26.50;10.20;;;;;;;12.10;42.94;100227.63;106238;1291;60187;-83
2023/03/04 10:31:56;;;;;;;28.40;10.90;;;;;;;12.00;42.47;100225.45;106248;1292;74232;-84
2023/03/04 10:34:22;;;;;;;21.70;10.20;;;;;;;11.79;42.61;100219.05;106176;1291;58438;-84
2023/03/04 10:36:56;;;;;;;22.70;10.00;;;;;;;11.67;42.88;100211.27;106220;1291;58480;-84
2023/03/04 10:39:28;;;;;;;28.50;8.90;;;;;;;11.60;42.97;100205.59;106740;1286;59940;-84
2023/03/04 10:42:00;;;;;;;33.50;9.90;;;;;;;11.47;43.27;100203.36;106980;1286;60151;-84
2023/03/04 10:44:27;;;;;;;22.20;9.20;;;;;;;11.26;43.63;100199.33;106995;1285;73578;-83
2023/03/04 10:46:55;;;;;;;23.80;9.80;;;;;;;11.13;43.49;100185.65;106938;1286;73144;-84
2023/03/04 10:49:23;;;;;;;22.10;9.60;;;;;;;10.96;43.95;100184.61;106919;1286;73369;-84
2023/03/04 10:51:53;;;;;;;20.90;9.90;;;;;;;10.78;44.63;100179.20;106930;1286;60106;-83
2023/03/04 10:54:38;;;;;;;25.90;10.70;;;;;;;10.65;45.13;100178.23;106909;1286;60098;-83
2023/03/04 10:57:35;;;;;;;23.00;10.30;;;;;;;10.57;46.13;100173.17;106937;1285;73638;-83
2023/03/04 11:00:03;;;;;;;25.20;10.10;;;;;;;10.69;46.03;100174.40;106950;1285;74371;-84
2023/03/04 11:02:30;;;;;;;25.10;10.20;;;;;;;10.76;45.48;100168.36;106961;1286;72598;-82